Overview Statistics Trail Chart Weather Telemetry Raw packets
 

This is the latest recevied weather packets stored in our database for station/object IW1RID-3. If no packets are shown the sender has not sent any weather packets the latest 10 day(s).

<< 6 7 8 9 10 11 12 >>
Time Temp. Humidity Pressure Rain* Wind** Luminosity Snow
1788425589 27.22° C 67% 1077.4 hPa - - - -
1788424383 26.67° C 68% 1077.4 hPa - - - -
1788423178 26.11° C 62% 1077.2 hPa - - - -
1788421974 25° C 70% 1076.9 hPa - - - -
1788420770 23.89° C 76% 1076.7 hPa - - - -
1788419565 23.33° C 79% 1076.6 hPa - - - -
1788418360 22.22° C 83% 1076.6 hPa - - - -
1788417156 21.67° C 85% 1076.7 hPa - - - -
1788415951 21.67° C 86% 1076.6 hPa - - - -
1788414746 21.11° C 88% 1076.4 hPa - - - -
1788413542 20.56° C 91% 1076.1 hPa - - - -
1788412337 20.56° C 92% 1075.8 hPa - - - -
1788411132 20.56° C 92% 1075.7 hPa - - - -
1788409928 21.11° C 90% 1075.6 hPa - - - -
1788408723 21.11° C 90% 1075.8 hPa - - - -
1788407519 20.56° C 93% 1075.8 hPa - - - -
1788406314 20.56° C 92% 1075.9 hPa - - - -
1788405109 20.56° C 93% 1075.9 hPa - - - -
1788403905 21.11° C 91% 1075.9 hPa - - - -
1788402700 20.56° C 93% 1075.8 hPa - - - -
1788400291 21.11° C 93% 1075.8 hPa - - - -
1788399086 21.11° C 93% 1075.8 hPa - - - -
1788397881 21.11° C 91% 1075.9 hPa - - - -
1788396677 21.11° C 93% 1075.9 hPa - - - -
1788395473 21.11° C 92% 1075.9 hPa - - - -

* Rain since midnight (hover to see other rain measurements)
** Current wind speed in m/s (hover to see current wind gust speed)